sensor_id;sensor_type;location;lat;lon;timestamp;pressure;altitude;pressure_sealevel;temperature;humidity
77897;BME280;67092;64.282;21.056;2023-05-13T00:01:34;102459.07;;;22.40;24.26
77897;BME280;67092;64.282;21.056;2023-05-13T00:03:59;102460.67;;;22.65;24.06
77897;BME280;67092;64.282;21.056;2023-05-13T00:06:25;102470.06;;;22.54;24.18
77897;BME280;67092;64.282;21.056;2023-05-13T00:08:51;102468.69;;;22.39;24.31
77897;BME280;67092;64.282;21.056;2023-05-13T00:11:16;102470.57;;;22.06;24.65
77897;BME280;67092;64.282;21.056;2023-05-13T00:13:42;102465.99;;;22.01;24.74
77897;BME280;67092;64.282;21.056;2023-05-13T00:16:08;102462.72;;;22.15;24.57
77897;BME280;67092;64.282;21.056;2023-05-13T00:18:33;102462.46;;;22.13;24.66
77897;BME280;67092;64.282;21.056;2023-05-13T00:20:59;102463.25;;;22.36;24.44
77897;BME280;67092;64.282;21.056;2023-05-13T00:23:24;102461.20;;;22.30;24.51
77897;BME280;67092;64.282;21.056;2023-05-13T00:25:50;102458.70;;;22.05;24.54
77897;BME280;67092;64.282;21.056;2023-05-13T00:28:16;102458.96;;;22.29;24.53
77897;BME280;67092;64.282;21.056;2023-05-13T00:30:42;102455.37;;;22.14;24.71
77897;BME280;67092;64.282;21.056;2023-05-13T00:33:07;102453.98;;;22.29;24.65
77897;BME280;67092;64.282;21.056;2023-05-13T00:35:33;102456.12;;;22.00;24.87
77897;BME280;67092;64.282;21.056;2023-05-13T00:37:58;102457.95;;;22.10;24.78
77897;BME280;67092;64.282;21.056;2023-05-13T00:40:24;102459.44;;;22.58;24.49
77897;BME280;67092;64.282;21.056;2023-05-13T00:42:50;102459.81;;;22.03;24.81
77897;BME280;67092;64.282;21.056;2023-05-13T00:45:16;102458.89;;;21.77;24.84
77897;BME280;67092;64.282;21.056;2023-05-13T00:47:42;102460.23;;;22.25;24.60
77897;BME280;67092;64.282;21.056;2023-05-13T00:50:08;102457.81;;;21.99;24.84
77897;BME280;67092;64.282;21.056;2023-05-13T00:52:32;102455.81;;;22.02;24.85
77897;BME280;67092;64.282;21.056;2023-05-13T00:54:57;102455.95;;;22.01;24.85
77897;BME280;67092;64.282;21.056;2023-05-13T00:57:23;102457.13;;;22.23;24.66
77897;BME280;67092;64.282;21.056;2023-05-13T00:59:49;102458.99;;;21.93;24.96
77897;BME280;67092;64.282;21.056;2023-05-13T01:02:18;102460.08;;;21.98;24.90
77897;BME280;67092;64.282;21.056;2023-05-13T01:04:45;102458.64;;;22.10;24.85
77897;BME280;67092;64.282;21.056;2023-05-13T01:07:11;102459.91;;;21.29;24.71
77897;BME280;67092;64.282;21.056;2023-05-13T01:09:42;102463.13;;;22.56;24.36
77897;BME280;67092;64.282;21.056;2023-05-13T01:12:02;102464.11;;;22.26;24.78
77897;BME280;67092;64.282;21.056;2023-05-13T01:14:27;102469.91;;;22.08;24.63
77897;BME280;67092;64.282;21.056;2023-05-13T01:16:50;102468.23;;;22.08;24.87
77897;BME280;67092;64.282;21.056;2023-05-13T01:19:24;102468.21;;;21.87;25.07
77897;BME280;67092;64.282;21.056;2023-05-13T01:21:39;102467.48;;;21.73;25.02
77897;BME280;67092;64.282;21.056;2023-05-13T01:24:05;102467.26;;;22.12;24.80
77897;BME280;67092;64.282;21.056;2023-05-13T01:26:31;102469.51;;;22.03;24.95
77897;BME280;67092;64.282;21.056;2023-05-13T01:28:56;102472.59;;;21.39;25.30
77897;BME280;67092;64.282;21.056;2023-05-13T01:31:23;102470.26;;;21.85;25.10
77897;BME280;67092;64.282;21.056;2023-05-13T01:33:48;102469.75;;;22.04;24.94
77897;BME280;67092;64.282;21.056;2023-05-13T01:36:13;102472.13;;;21.98;25.07
77897;BME280;67092;64.282;21.056;2023-05-13T01:38:40;102473.19;;;22.14;25.01
77897;BME280;67092;64.282;21.056;2023-05-13T01:41:04;102476.28;;;21.59;25.44
77897;BME280;67092;64.282;21.056;2023-05-13T01:43:30;102474.07;;;21.96;25.11
77897;BME280;67092;64.282;21.056;2023-05-13T01:45:55;102476.07;;;21.68;25.41
77897;BME280;67092;64.282;21.056;2023-05-13T01:48:21;102472.53;;;22.06;25.15
77897;BME280;67092;64.282;21.056;2023-05-13T01:50:47;102474.72;;;21.69;25.38
77897;BME280;67092;64.282;21.056;2023-05-13T01:53:13;102471.97;;;22.01;25.13
77897;BME280;67092;64.282;21.056;2023-05-13T01:55:38;102473.92;;;21.96;25.18
77897;BME280;67092;64.282;21.056;2023-05-13T01:58:04;102471.91;;;21.95;25.21
77897;BME280;67092;64.282;21.056;2023-05-13T02:00:29;102472.55;;;21.86;25.46
77897;BME280;67092;64.282;21.056;2023-05-13T02:02:55;102468.17;;;22.05;25.33
77897;BME280;67092;64.282;21.056;2023-05-13T02:05:21;102465.08;;;22.03;25.38
77897;BME280;67092;64.282;21.056;2023-05-13T02:07:46;102471.17;;;21.87;25.48
77897;BME280;67092;64.282;21.056;2023-05-13T02:10:12;102473.42;;;22.00;25.32
77897;BME280;67092;64.282;21.056;2023-05-13T02:12:37;102478.23;;;22.03;25.26
77897;BME280;67092;64.282;21.056;2023-05-13T02:15:04;102485.47;;;21.80;25.47
77897;BME280;67092;64.282;21.056;2023-05-13T02:17:29;102483.95;;;22.39;24.92
77897;BME280;67092;64.282;21.056;2023-05-13T02:19:54;102485.75;;;22.21;25.32
77897;BME280;67092;64.282;21.056;2023-05-13T02:22:20;102487.41;;;22.15;25.16
77897;BME280;67092;64.282;21.056;2023-05-13T02:24:45;102483.47;;;22.32;25.24
77897;BME280;67092;64.282;21.056;2023-05-13T02:27:11;102483.99;;;22.12;25.16
77897;BME280;67092;64.282;21.056;2023-05-13T02:29:37;102482.66;;;22.27;25.27
77897;BME280;67092;64.282;21.056;2023-05-13T02:32:02;102487.21;;;21.97;25.28
77897;BME280;67092;64.282;21.056;2023-05-13T02:34:28;102485.14;;;22.20;25.07
77897;BME280;67092;64.282;21.056;2023-05-13T02:36:53;102483.19;;;21.77;25.47
77897;BME280;67092;64.282;21.056;2023-05-13T02:39:19;102486.39;;;21.98;25.32
77897;BME280;67092;64.282;21.056;2023-05-13T02:41:45;102482.62;;;22.06;25.22
77897;BME280;67092;64.282;21.056;2023-05-13T02:44:11;102486.72;;;21.93;25.36
77897;BME280;67092;64.282;21.056;2023-05-13T02:46:36;102490.36;;;21.68;25.62
77897;BME280;67092;64.282;21.056;2023-05-13T02:49:02;102492.55;;;21.79;25.52
77897;BME280;67092;64.282;21.056;2023-05-13T02:51:27;102491.49;;;21.95;25.39
77897;BME280;67092;64.282;21.056;2023-05-13T02:53:53;102491.32;;;22.53;25.09
77897;BME280;67092;64.282;21.056;2023-05-13T02:56:19;102491.79;;;22.00;25.38
77897;BME280;67092;64.282;21.056;2023-05-13T02:58:44;102489.48;;;21.60;25.73
77897;BME280;67092;64.282;21.056;2023-05-13T03:01:10;102490.22;;;22.18;25.45
77897;BME280;67092;64.282;21.056;2023-05-13T03:03:35;102492.01;;;21.89;25.68
77897;BME280;67092;64.282;21.056;2023-05-13T03:06:01;102496.95;;;21.79;25.56
77897;BME280;67092;64.282;21.056;2023-05-13T03:08:27;102492.38;;;22.16;25.21
77897;BME280;67092;64.282;21.056;2023-05-13T03:10:52;102491.72;;;21.68;25.71
77897;BME280;67092;64.282;21.056;2023-05-13T03:13:18;102491.95;;;21.96;25.66
77897;BME280;67092;64.282;21.056;2023-05-13T03:15:43;102489.38;;;21.77;25.61
77897;BME280;67092;64.282;21.056;2023-05-13T03:18:09;102484.90;;;22.25;25.13
77897;BME280;67092;64.282;21.056;2023-05-13T03:20:35;102483.40;;;21.92;25.42
77897;BME280;67092;64.282;21.056;2023-05-13T03:23:00;102482.70;;;22.33;25.09
77897;BME280;67092;64.282;21.056;2023-05-13T03:25:26;102481.63;;;22.24;25.12
77897;BME280;67092;64.282;21.056;2023-05-13T03:27:52;102485.90;;;21.68;25.64
77897;BME280;67092;64.282;21.056;2023-05-13T03:30:17;102482.42;;;21.87;25.69
77897;BME280;67092;64.282;21.056;2023-05-13T03:32:43;102481.77;;;21.71;25.61
77897;BME280;67092;64.282;21.056;2023-05-13T03:35:08;102486.36;;;21.57;25.77
77897;BME280;67092;64.282;21.056;2023-05-13T03:37:34;102496.47;;;21.84;25.52
77897;BME280;67092;64.282;21.056;2023-05-13T03:40:00;102499.61;;;21.89;25.48
77897;BME280;67092;64.282;21.056;2023-05-13T03:42:25;102495.17;;;21.37;25.74
77897;BME280;67092;64.282;21.056;2023-05-13T03:44:51;102496.41;;;21.74;25.69
77897;BME280;67092;64.282;21.056;2023-05-13T03:47:17;102495.44;;;22.10;25.39
77897;BME280;67092;64.282;21.056;2023-05-13T03:49:42;102492.66;;;21.87;25.77
77897;BME280;67092;64.282;21.056;2023-05-13T03:52:08;102490.94;;;21.78;25.64
77897;BME280;67092;64.282;21.056;2023-05-13T03:54:34;102486.03;;;22.12;25.30
77897;BME280;67092;64.282;21.056;2023-05-13T03:56:59;102489.28;;;21.88;25.61
77897;BME280;67092;64.282;21.056;2023-05-13T03:59:25;102482.52;;;21.45;25.98
77897;BME280;67092;64.282;21.056;2023-05-13T04:01:50;102488.37;;;21.74;25.70
77897;BME280;67092;64.282;21.056;2023-05-13T04:04:16;102489.45;;;22.01;25.47
77897;BME280;67092;64.282;21.056;2023-05-13T04:06:41;102495.29;;;21.87;25.62
77897;BME280;67092;64.282;21.056;2023-05-13T04:09:07;102500.88;;;21.84;25.69
77897;BME280;67092;64.282;21.056;2023-05-13T04:11:33;102502.09;;;21.99;25.58
77897;BME280;67092;64.282;21.056;2023-05-13T04:13:58;102499.44;;;21.59;25.95
77897;BME280;67092;64.282;21.056;2023-05-13T04:16:24;102499.01;;;21.67;25.83
77897;BME280;67092;64.282;21.056;2023-05-13T04:18:49;102498.26;;;21.38;26.11
77897;BME280;67092;64.282;21.056;2023-05-13T04:21:15;102498.19;;;21.80;25.95
77897;BME280;67092;64.282;21.056;2023-05-13T04:23:41;102501.32;;;21.69;25.81
77897;BME280;67092;64.282;21.056;2023-05-13T04:26:06;102501.44;;;21.63;25.93
77897;BME280;67092;64.282;21.056;2023-05-13T04:28:32;102502.15;;;21.72;25.81
77897;BME280;67092;64.282;21.056;2023-05-13T04:30:58;102502.74;;;22.01;25.51
77897;BME280;67092;64.282;21.056;2023-05-13T04:33:23;102500.99;;;21.99;25.56
77897;BME280;67092;64.282;21.056;2023-05-13T04:35:49;102494.18;;;21.47;26.08
77897;BME280;67092;64.282;21.056;2023-05-13T04:38:15;102490.95;;;21.43;26.17
77897;BME280;67092;64.282;21.056;2023-05-13T04:40:40;102489.60;;;22.28;25.32
77897;BME280;67092;64.282;21.056;2023-05-13T04:43:06;102496.74;;;21.90;25.66
77897;BME280;67092;64.282;21.056;2023-05-13T04:45:31;102502.22;;;21.83;25.73
77897;BME280;67092;64.282;21.056;2023-05-13T04:47:57;102504.27;;;21.88;25.72
77897;BME280;67092;64.282;21.056;2023-05-13T04:50:23;102504.32;;;21.94;25.59
77897;BME280;67092;64.282;21.056;2023-05-13T04:52:48;102504.52;;;21.92;25.58
77897;BME280;67092;64.282;21.056;2023-05-13T04:55:14;102502.37;;;21.55;26.01
77897;BME280;67092;64.282;21.056;2023-05-13T04:57:39;102502.98;;;21.63;25.99
77897;BME280;67092;64.282;21.056;2023-05-13T05:00:06;102509.66;;;21.95;25.57
77897;BME280;67092;64.282;21.056;2023-05-13T05:02:31;102514.63;;;22.08;25.48
77897;BME280;67092;64.282;21.056;2023-05-13T05:04:56;102511.38;;;21.84;25.65
77897;BME280;67092;64.282;21.056;2023-05-13T05:07:22;102508.34;;;22.04;25.62
77897;BME280;67092;64.282;21.056;2023-05-13T05:09:48;102504.70;;;21.93;25.69
77897;BME280;67092;64.282;21.056;2023-05-13T05:12:13;102505.32;;;22.00;25.66
77897;BME280;67092;64.282;21.056;2023-05-13T05:14:39;102506.57;;;21.63;26.00
77897;BME280;67092;64.282;21.056;2023-05-13T05:17:05;102511.03;;;22.37;25.33
77897;BME280;67092;64.282;21.056;2023-05-13T05:19:30;102515.92;;;22.30;25.65
77897;BME280;67092;64.282;21.056;2023-05-13T05:21:56;102515.83;;;22.04;25.70
77897;BME280;67092;64.282;21.056;2023-05-13T05:24:21;102517.99;;;22.24;25.51
77897;BME280;67092;64.282;21.056;2023-05-13T05:26:47;102511.92;;;21.58;26.10
77897;BME280;67092;64.282;21.056;2023-05-13T05:29:13;102517.12;;;22.11;25.66
77897;BME280;67092;64.282;21.056;2023-05-13T05:31:38;102513.80;;;22.20;25.53
77897;BME280;67092;64.282;21.056;2023-05-13T05:34:04;102513.32;;;21.58;26.15
77897;BME280;67092;64.282;21.056;2023-05-13T05:36:29;102518.97;;;22.00;25.75
77897;BME280;67092;64.282;21.056;2023-05-13T05:38:55;102515.82;;;21.79;25.96
77897;BME280;67092;64.282;21.056;2023-05-13T05:41:21;102515.43;;;21.81;25.98
77897;BME280;67092;64.282;21.056;2023-05-13T05:43:46;102516.12;;;21.94;25.79
77897;BME280;67092;64.282;21.056;2023-05-13T05:46:12;102515.69;;;21.98;25.76
77897;BME280;67092;64.282;21.056;2023-05-13T05:48:37;102512.80;;;21.57;26.25
77897;BME280;67092;64.282;21.056;2023-05-13T05:51:04;102513.54;;;22.16;25.66
77897;BME280;67092;64.282;21.056;2023-05-13T05:53:29;102515.68;;;21.65;25.95
77897;BME280;67092;64.282;21.056;2023-05-13T05:55:54;102515.32;;;21.86;25.98
77897;BME280;67092;64.282;21.056;2023-05-13T05:58:20;102514.64;;;21.75;26.14
77897;BME280;67092;64.282;21.056;2023-05-13T06:00:45;102518.61;;;22.17;25.69
77897;BME280;67092;64.282;21.056;2023-05-13T06:03:11;102517.43;;;21.73;26.09
77897;BME280;67092;64.282;21.056;2023-05-13T06:05:37;102526.33;;;22.25;25.60
77897;BME280;67092;64.282;21.056;2023-05-13T06:08:02;102532.15;;;21.90;25.94
77897;BME280;67092;64.282;21.056;2023-05-13T06:10:28;102531.77;;;21.50;26.33
77897;BME280;67092;64.282;21.056;2023-05-13T06:12:54;102535.44;;;21.85;26.00
77897;BME280;67092;64.282;21.056;2023-05-13T06:15:19;102539.11;;;21.98;25.86
77897;BME280;67092;64.282;21.056;2023-05-13T06:17:45;102542.29;;;22.12;25.72
77897;BME280;67092;64.282;21.056;2023-05-13T06:20:11;102542.27;;;22.14;25.72
77897;BME280;67092;64.282;21.056;2023-05-13T06:22:36;102541.42;;;22.11;25.73
77897;BME280;67092;64.282;21.056;2023-05-13T06:25:02;102541.27;;;21.92;25.91
77897;BME280;67092;64.282;21.056;2023-05-13T06:27:27;102540.76;;;21.76;26.07
77897;BME280;67092;64.282;21.056;2023-05-13T06:29:53;102539.78;;;21.55;26.27
77897;BME280;67092;64.282;21.056;2023-05-13T06:32:18;102536.40;;;21.76;26.09
77897;BME280;67092;64.282;21.056;2023-05-13T06:34:45;102541.50;;;22.23;25.92
77897;BME280;67092;64.282;21.056;2023-05-13T06:37:10;102537.59;;;21.40;26.48
77897;BME280;67092;64.282;21.056;2023-05-13T06:39:35;102538.61;;;22.06;26.11
77897;BME280;67092;64.282;21.056;2023-05-13T06:42:01;102535.29;;;21.44;26.38
77897;BME280;67092;64.282;21.056;2023-05-13T06:44:26;102531.83;;;21.90;25.91
77897;BME280;67092;64.282;21.056;2023-05-13T06:46:52;102533.22;;;21.99;26.14
77897;BME280;67092;64.282;21.056;2023-05-13T06:49:18;102531.92;;;22.03;25.88
77897;BME280;67092;64.282;21.056;2023-05-13T06:51:43;102531.70;;;21.99;25.83
77897;BME280;67092;64.282;21.056;2023-05-13T06:54:09;102535.85;;;22.05;25.82
77897;BME280;67092;64.282;21.056;2023-05-13T06:56:35;102534.80;;;22.18;25.71
77897;BME280;67092;64.282;21.056;2023-05-13T06:59:00;102532.28;;;21.65;26.22
77897;BME280;67092;64.282;21.056;2023-05-13T07:01:26;102534.65;;;21.90;26.28
77897;BME280;67092;64.282;21.056;2023-05-13T07:03:52;102531.60;;;21.55;26.17
77897;BME280;67092;64.282;21.056;2023-05-13T07:06:17;102533.08;;;22.21;25.69
77897;BME280;67092;64.282;21.056;2023-05-13T07:08:43;102531.98;;;22.27;25.64
77897;BME280;67092;64.282;21.056;2023-05-13T07:11:08;102531.69;;;22.19;25.71
77897;BME280;67092;64.282;21.056;2023-05-13T07:13:34;102526.74;;;21.93;25.93
77897;BME280;67092;64.282;21.056;2023-05-13T07:16:00;102525.59;;;21.37;26.32
77897;BME280;67092;64.282;21.056;2023-05-13T07:18:25;102527.74;;;21.89;26.06
77897;BME280;67092;64.282;21.056;2023-05-13T07:20:51;102533.48;;;21.77;26.20
77897;BME280;67092;64.282;21.056;2023-05-13T07:23:16;102531.92;;;21.88;26.06
77897;BME280;67092;64.282;21.056;2023-05-13T07:25:42;102525.63;;;21.94;26.03
77897;BME280;67092;64.282;21.056;2023-05-13T07:28:07;102525.33;;;22.14;25.88
77897;BME280;67092;64.282;21.056;2023-05-13T07:30:33;102517.85;;;22.42;25.56
77897;BME280;67092;64.282;21.056;2023-05-13T07:32:59;102518.99;;;22.29;26.13
77897;BME280;67092;64.282;21.056;2023-05-13T07:35:24;102518.74;;;21.89;26.04
77897;BME280;67092;64.282;21.056;2023-05-13T07:37:50;102517.87;;;22.36;25.63
77897;BME280;67092;64.282;21.056;2023-05-13T07:40:15;102519.24;;;22.15;25.94
77897;BME280;67092;64.282;21.056;2023-05-13T07:42:41;102513.72;;;21.99;26.20
77897;BME280;67092;64.282;21.056;2023-05-13T07:45:07;102510.93;;;21.87;26.28
77897;BME280;67092;64.282;21.056;2023-05-13T07:47:32;102511.10;;;22.22;26.05
77897;BME280;67092;64.282;21.056;2023-05-13T07:49:58;102509.47;;;22.50;25.73
77897;BME280;67092;64.282;21.056;2023-05-13T07:52:23;102511.96;;;22.02;26.23
77897;BME280;67092;64.282;21.056;2023-05-13T07:54:49;102510.67;;;22.00;26.30
77897;BME280;67092;64.282;21.056;2023-05-13T07:57:14;102511.26;;;22.32;25.90
77897;BME280;67092;64.282;21.056;2023-05-13T07:59:40;102521.14;;;22.35;26.16
77897;BME280;67092;64.282;21.056;2023-05-13T08:02:06;102519.47;;;22.42;25.87
77897;BME280;67092;64.282;21.056;2023-05-13T08:04:31;102525.05;;;21.94;26.13
77897;BME280;67092;64.282;21.056;2023-05-13T08:06:57;102527.44;;;21.89;26.22
77897;BME280;67092;64.282;21.056;2023-05-13T08:09:22;102521.35;;;22.46;25.88
77897;BME280;67092;64.282;21.056;2023-05-13T08:11:48;102522.82;;;22.76;25.51
77897;BME280;67092;64.282;21.056;2023-05-13T08:14:14;102518.80;;;22.35;25.74
77897;BME280;67092;64.282;21.056;2023-05-13T08:16:39;102517.35;;;22.64;25.50
77897;BME280;67092;64.282;21.056;2023-05-13T08:19:05;102514.35;;;22.16;26.15
77897;BME280;67092;64.282;21.056;2023-05-13T08:21:30;102509.62;;;22.57;26.07
77897;BME280;67092;64.282;21.056;2023-05-13T08:23:56;102507.35;;;22.14;26.09
77897;BME280;67092;64.282;21.056;2023-05-13T08:26:22;102507.86;;;22.49;25.94
77897;BME280;67092;64.282;21.056;2023-05-13T08:28:47;102515.12;;;22.95;25.75
77897;BME280;67092;64.282;21.056;2023-05-13T08:31:13;102510.21;;;23.29;25.11
77897;BME280;67092;64.282;21.056;2023-05-13T08:33:38;102514.21;;;22.47;26.19
77897;BME280;67092;64.282;21.056;2023-05-13T08:36:05;102514.06;;;22.50;25.96
77897;BME280;67092;64.282;21.056;2023-05-13T08:38:30;102514.44;;;22.68;25.79
77897;BME280;67092;64.282;21.056;2023-05-13T08:40:55;102516.35;;;22.90;25.57
77897;BME280;67092;64.282;21.056;2023-05-13T08:43:22;102517.87;;;22.71;25.77
77897;BME280;67092;64.282;21.056;2023-05-13T08:45:47;102516.69;;;22.87;25.79
77897;BME280;67092;64.282;21.056;2023-05-13T08:48:14;102516.56;;;22.94;25.75
77897;BME280;67092;64.282;21.056;2023-05-13T08:50:38;102516.74;;;22.91;25.55
77897;BME280;67092;64.282;21.056;2023-05-13T08:53:06;102513.07;;;22.49;25.94
77897;BME280;67092;64.282;21.056;2023-05-13T08:55:29;102512.41;;;22.40;26.02
77897;BME280;67092;64.282;21.056;2023-05-13T08:57:55;102510.37;;;22.55;25.89
77897;BME280;67092;64.282;21.056;2023-05-13T09:00:20;102508.64;;;22.31;25.93
77897;BME280;67092;64.282;21.056;2023-05-13T09:02:46;102509.18;;;23.02;25.70
77897;BME280;67092;64.282;21.056;2023-05-13T09:05:11;102509.14;;;22.77;25.74
77897;BME280;67092;64.282;21.056;2023-05-13T09:07:38;102509.92;;;22.83;25.59
77897;BME280;67092;64.282;21.056;2023-05-13T09:10:03;102504.46;;;23.11;25.39
77897;BME280;67092;64.282;21.056;2023-05-13T09:12:41;102504.10;;;23.42;25.31
77897;BME280;67092;64.282;21.056;2023-05-13T09:14:54;102503.16;;;22.69;25.94
77897;BME280;67092;64.282;21.056;2023-05-13T09:17:19;102502.32;;;22.57;26.15
77897;BME280;67092;64.282;21.056;2023-05-13T09:19:45;102498.72;;;22.45;26.36
77897;BME280;67092;64.282;21.056;2023-05-13T09:22:16;102496.41;;;22.92;25.83
77897;BME280;67092;64.282;21.056;2023-05-13T09:24:36;102496.05;;;22.84;25.86
77897;BME280;67092;64.282;21.056;2023-05-13T09:27:02;102494.25;;;22.35;26.28
77897;BME280;67092;64.282;21.056;2023-05-13T09:29:27;102490.77;;;22.44;26.19
77897;BME280;67092;64.282;21.056;2023-05-13T09:31:55;102492.18;;;23.07;26.21
77897;BME280;67092;64.282;21.056;2023-05-13T09:34:25;102492.06;;;22.51;26.86
77897;BME280;67092;64.282;21.056;2023-05-13T09:36:44;102490.93;;;22.44;26.79
77897;BME280;67092;64.282;21.056;2023-05-13T09:39:10;102485.72;;;22.85;26.19
77897;BME280;67092;64.282;21.056;2023-05-13T09:41:35;102485.61;;;22.47;26.71
77897;BME280;67092;64.282;21.056;2023-05-13T09:44:02;102483.84;;;22.72;26.75
77897;BME280;67092;64.282;21.056;2023-05-13T09:46:26;102479.83;;;22.86;26.69
77897;BME280;67092;64.282;21.056;2023-05-13T09:48:52;102475.21;;;23.02;26.43
77897;BME280;67092;64.282;21.056;2023-05-13T09:51:18;102474.60;;;22.51;27.03
77897;BME280;67092;64.282;21.056;2023-05-13T09:53:46;102471.43;;;22.77;27.06
77897;BME280;67092;64.282;21.056;2023-05-13T09:56:09;102466.46;;;22.44;27.00
77897;BME280;67092;64.282;21.056;2023-05-13T09:58:34;102465.07;;;22.56;26.72
77897;BME280;67092;64.282;21.056;2023-05-13T10:01:00;102464.88;;;22.69;26.51
77897;BME280;67092;64.282;21.056;2023-05-13T10:03:27;102464.27;;;22.25;26.59
77897;BME280;67092;64.282;21.056;2023-05-13T10:05:51;102463.62;;;22.31;26.73
77897;BME280;67092;64.282;21.056;2023-05-13T10:08:17;102462.82;;;22.50;26.69
77897;BME280;67092;64.282;21.056;2023-05-13T10:10:43;102461.63;;;22.47;26.59
77897;BME280;67092;64.282;21.056;2023-05-13T10:13:09;102459.04;;;22.17;26.79
77897;BME280;67092;64.282;21.056;2023-05-13T10:15:34;102457.48;;;22.61;26.29
77897;BME280;67092;64.282;21.056;2023-05-13T10:18:00;102456.55;;;22.26;26.53
77897;BME280;67092;64.282;21.056;2023-05-13T10:20:25;102454.97;;;22.00;26.71
77897;BME280;67092;64.282;21.056;2023-05-13T10:22:50;102455.08;;;22.05;26.30
77897;BME280;67092;64.282;21.056;2023-05-13T10:25:16;102454.81;;;22.91;25.85
77897;BME280;67092;64.282;21.056;2023-05-13T10:27:41;102457.21;;;22.77;25.64
77897;BME280;67092;64.282;21.056;2023-05-13T10:30:08;102459.49;;;22.34;25.78
77897;BME280;67092;64.282;21.056;2023-05-13T10:32:32;102459.07;;;23.14;25.21
77897;BME280;67092;64.282;21.056;2023-05-13T10:35:03;102457.44;;;22.21;25.81
77897;BME280;67092;64.282;21.056;2023-05-13T10:40:09;102452.46;;;22.56;25.57
77897;BME280;67092;64.282;21.056;2023-05-13T10:42:30;102445.67;;;22.78;25.31
77897;BME280;67092;64.282;21.056;2023-05-13T10:44:40;102443.53;;;22.60;25.45
77897;BME280;67092;64.282;21.056;2023-05-13T10:47:08;102444.85;;;22.36;25.40
77897;BME280;67092;64.282;21.056;2023-05-13T10:49:33;102447.29;;;22.32;25.38
77897;BME280;67092;64.282;21.056;2023-05-13T10:52:03;102445.20;;;22.42;25.46
77897;BME280;67092;64.282;21.056;2023-05-13T10:54:23;102442.92;;;22.31;25.30
77897;BME280;67092;64.282;21.056;2023-05-13T10:56:55;102439.85;;;21.79;25.53
77897;BME280;67092;64.282;21.056;2023-05-13T10:59:14;102437.54;;;22.56;25.19
77897;BME280;67092;64.282;21.056;2023-05-13T11:01:41;102432.97;;;22.48;25.23
77897;BME280;67092;64.282;21.056;2023-05-13T11:04:05;102426.45;;;22.09;25.35
77897;BME280;67092;64.282;21.056;2023-05-13T11:06:34;102421.52;;;22.35;25.26
77897;BME280;67092;64.282;21.056;2023-05-13T11:08:56;102423.20;;;22.66;24.92
77897;BME280;67092;64.282;21.056;2023-05-13T11:11:25;102421.37;;;22.62;24.91
77897;BME280;67092;64.282;21.056;2023-05-13T11:13:49;102426.21;;;22.49;25.00
77897;BME280;67092;64.282;21.056;2023-05-13T11:16:13;102419.84;;;22.62;24.88
77897;BME280;67092;64.282;21.056;2023-05-13T11:18:39;102420.32;;;22.64;24.83
77897;BME280;67092;64.282;21.056;2023-05-13T11:21:06;102422.40;;;22.34;25.06
77897;BME280;67092;64.282;21.056;2023-05-13T11:23:32;102418.36;;;22.74;24.62
77897;BME280;67092;64.282;21.056;2023-05-13T11:26:08;102415.39;;;22.33;24.99
77897;BME280;67092;64.282;21.056;2023-05-13T11:30:52;102413.17;;;22.71;24.57
77897;BME280;67092;64.282;21.056;2023-05-13T11:33:13;102412.45;;;22.31;24.70
77897;BME280;67092;64.282;21.056;2023-05-13T11:35:38;102413.48;;;22.41;24.78
77897;BME280;67092;64.282;21.056;2023-05-13T11:38:04;102410.66;;;22.24;24.72
77897;BME280;67092;64.282;21.056;2023-05-13T11:40:30;102413.43;;;22.67;24.54
77897;BME280;67092;64.282;21.056;2023-05-13T11:42:55;102415.38;;;22.08;24.85
77897;BME280;67092;64.282;21.056;2023-05-13T11:45:22;102415.10;;;22.13;24.80
77897;BME280;67092;64.282;21.056;2023-05-13T11:47:46;102410.57;;;23.16;24.54
77897;BME280;67092;64.282;21.056;2023-05-13T11:50:17;102413.51;;;22.86;24.78
77897;BME280;67092;64.282;21.056;2023-05-13T11:52:37;102413.00;;;22.59;24.95
77897;BME280;67092;64.282;21.056;2023-05-13T11:55:04;102412.57;;;22.21;25.24
77897;BME280;67092;64.282;21.056;2023-05-13T11:57:30;102411.19;;;22.31;25.08
77897;BME280;67092;64.282;21.056;2023-05-13T11:59:56;102406.53;;;22.53;27.08
77897;BME280;67092;64.282;21.056;2023-05-13T12:02:21;102406.51;;;22.37;27.64
77897;BME280;67092;64.282;21.056;2023-05-13T12:04:45;102405.71;;;22.50;28.00
77897;BME280;67092;64.282;21.056;2023-05-13T12:07:11;102401.87;;;22.72;28.24
77897;BME280;67092;64.282;21.056;2023-05-13T12:09:36;102400.89;;;22.67;28.49
77897;BME280;67092;64.282;21.056;2023-05-13T12:12:03;102401.66;;;22.72;28.31
77897;BME280;67092;64.282;21.056;2023-05-13T12:14:27;102398.67;;;23.04;28.27
77897;BME280;67092;64.282;21.056;2023-05-13T12:16:53;102397.86;;;22.82;28.67
77897;BME280;67092;64.282;21.056;2023-05-13T12:19:19;102395.90;;;22.57;29.05
77897;BME280;67092;64.282;21.056;2023-05-13T12:21:44;102392.07;;;23.01;28.78
77897;BME280;67092;64.282;21.056;2023-05-13T12:24:17;102392.21;;;22.74;28.96
77897;BME280;67092;64.282;21.056;2023-05-13T12:26:35;102392.05;;;22.88;29.30
77897;BME280;67092;64.282;21.056;2023-05-13T12:29:01;102384.58;;;22.96;29.08
77897;BME280;67092;64.282;21.056;2023-05-13T12:31:26;102389.35;;;22.74;29.63
77897;BME280;67092;64.282;21.056;2023-05-13T12:33:52;102384.28;;;22.35;29.75
77897;BME280;67092;64.282;21.056;2023-05-13T12:36:19;102387.51;;;22.35;29.78